createdAt,value
2022-10-11T00:00:43.671Z,101214.22
2022-10-11T00:03:09.782Z,101216.00
2022-10-11T00:05:37.850Z,101219.50
2022-10-11T00:08:04.002Z,101218.72
2022-10-11T00:10:30.146Z,101224.84
2022-10-11T00:12:56.278Z,101217.03
2022-10-11T00:15:22.438Z,101220.41
2022-10-11T00:17:48.561Z,101223.13
2022-10-11T00:20:14.703Z,101224.06
2022-10-11T00:22:40.852Z,101224.06
2022-10-11T00:25:06.965Z,101227.56
2022-10-11T00:27:36.200Z,101232.03
2022-10-11T00:30:02.379Z,101232.03
2022-10-11T00:32:28.505Z,101235.50
2022-10-11T00:34:54.657Z,101232.03
2022-10-11T00:37:20.814Z,101222.44
2022-10-11T00:39:46.925Z,101225.91
2022-10-11T00:42:13.049Z,101225.16
2022-10-11T00:44:39.186Z,101220.91
2022-10-11T00:47:05.351Z,101218.22
2022-10-11T00:49:31.455Z,101228.88
2022-10-11T00:51:57.579Z,101230.81
2022-10-11T00:54:23.730Z,101229.94
2022-10-11T00:56:49.876Z,101226.63
2022-10-11T00:59:16.055Z,101225.19
2022-10-11T01:01:42.257Z,101225.94
2022-10-11T01:04:12.682Z,101223.81
2022-10-11T01:06:38.818Z,101226.75
2022-10-11T01:09:04.968Z,101232.34
2022-10-11T01:11:31.068Z,101231.66
2022-10-11T01:13:57.199Z,101234.53
2022-10-11T01:16:23.368Z,101229.66
2022-10-11T01:18:49.497Z,101240.50
2022-10-11T01:21:15.636Z,101244.28
2022-10-11T01:23:41.777Z,101246.97
2022-10-11T01:26:08.218Z,101250.53
2022-10-11T01:28:34.637Z,101262.19
2022-10-11T01:31:00.808Z,101258.78
2022-10-11T01:33:26.928Z,101259.66
2022-10-11T01:35:53.081Z,101260.72
2022-10-11T01:38:19.212Z,101261.66
2022-10-11T01:40:45.363Z,101260.97
2022-10-11T01:43:11.499Z,101264.59
2022-10-11T01:45:37.643Z,101267.31
2022-10-11T01:48:03.782Z,101268.13
2022-10-11T01:50:29.913Z,101267.34
2022-10-11T01:52:56.109Z,101267.44
2022-10-11T01:55:22.240Z,101273.72
2022-10-11T01:57:48.389Z,101277.31
2022-10-11T02:00:14.540Z,101282.56
2022-10-11T02:02:40.683Z,101282.66
2022-10-11T02:05:06.802Z,101287.81
2022-10-11T02:07:32.942Z,101281.91
2022-10-11T02:09:59.053Z,101281.13
2022-10-11T02:12:25.199Z,101289.00
2022-10-11T02:14:51.315Z,101283.91
2022-10-11T02:17:17.473Z,101285.75
2022-10-11T02:19:43.596Z,101279.88
2022-10-11T02:22:09.715Z,101280.78
2022-10-11T02:24:35.881Z,101292.06
2022-10-11T02:27:02.031Z,101287.75
2022-10-11T02:29:28.145Z,101289.59
2022-10-11T02:31:54.291Z,101286.19
2022-10-11T02:34:20.416Z,101284.34
2022-10-11T02:36:46.524Z,101289.81
2022-10-11T02:39:12.660Z,101285.47
2022-10-11T02:41:38.808Z,101286.41
2022-10-11T02:44:04.963Z,101295.31
2022-10-11T02:46:31.110Z,101290.91
2022-10-11T02:48:57.241Z,101288.28
2022-10-11T02:51:23.384Z,101291.06
2022-10-11T02:53:49.528Z,101293.06
2022-10-11T02:56:15.645Z,101300.00
2022-10-11T02:58:41.792Z,101301.09
2022-10-11T03:01:07.951Z,101307.31
2022-10-11T03:03:34.123Z,101306.59
2022-10-11T03:06:00.260Z,101303.00
2022-10-11T03:08:26.399Z,101292.69
2022-10-11T03:10:52.720Z,101308.59
2022-10-11T03:13:18.836Z,101300.66
2022-10-11T03:15:44.978Z,101299.97
2022-10-11T03:18:11.117Z,101304.34
2022-10-11T03:20:37.273Z,101310.66
2022-10-11T03:23:03.388Z,101314.13
2022-10-11T03:25:29.498Z,101310.66
2022-10-11T03:27:55.635Z,101321.28
2022-10-11T03:30:21.784Z,101320.34
2022-10-11T03:32:47.898Z,101320.34
2022-10-11T03:35:14.019Z,101325.81
2022-10-11T03:37:40.148Z,101326.53
2022-10-11T03:40:06.281Z,101324.97
2022-10-11T03:42:32.419Z,101328.44
2022-10-11T03:44:58.567Z,101324.28
2022-10-11T03:47:24.736Z,101326.75
2022-10-11T03:49:50.866Z,101327.72
2022-10-11T03:52:16.998Z,101333.84
2022-10-11T03:54:43.129Z,101334.16
2022-10-11T03:57:09.248Z,101327.25
2022-10-11T03:59:35.386Z,101332.63
2022-10-11T04:02:01.590Z,101337.09
2022-10-11T04:04:27.759Z,101337.16
2022-10-11T04:06:53.884Z,101333.16
2022-10-11T04:09:20.024Z,101334.94
2022-10-11T04:11:46.168Z,101333.31
2022-10-11T04:14:12.289Z,101340.47
2022-10-11T04:16:38.402Z,101341.56
2022-10-11T04:19:04.528Z,101346.94
2022-10-11T04:21:30.649Z,101353.25
2022-10-11T04:23:56.791Z,101346.59
2022-10-11T04:26:22.944Z,101348.63
2022-10-11T04:28:49.107Z,101360.13
2022-10-11T04:31:15.535Z,101365.50
2022-10-11T04:33:41.661Z,101367.41
2022-10-11T04:36:08.381Z,101361.44
2022-10-11T04:38:34.784Z,101365.13
2022-10-11T04:41:00.924Z,101373.06
2022-10-11T04:43:27.039Z,101378.28
2022-10-11T04:45:55.489Z,101390.88
2022-10-11T04:48:21.757Z,101380.47
2022-10-11T04:50:47.880Z,101383.16
2022-10-11T04:53:14.026Z,101392.00
2022-10-11T04:55:40.187Z,101395.69
2022-10-11T04:58:06.316Z,101397.66
2022-10-11T05:00:32.422Z,101405.56
2022-10-11T05:02:58.682Z,101412.56
2022-10-11T05:05:24.793Z,101413.78
2022-10-11T05:07:50.949Z,101408.94
2022-10-11T05:10:17.085Z,101417.13
2022-10-11T05:12:43.201Z,101412.97
2022-10-11T05:15:09.354Z,101420.34
2022-10-11T05:17:35.467Z,101416.09
2022-10-11T05:20:01.572Z,101421.53
2022-10-11T05:22:27.712Z,101424.28
2022-10-11T05:24:53.848Z,101420.38
2022-10-11T05:27:19.967Z,101421.44
2022-10-11T05:29:46.121Z,101424.91
2022-10-11T05:32:12.239Z,101432.63
2022-10-11T05:34:38.399Z,101431.22
2022-10-11T05:37:04.535Z,101437.50
2022-10-11T05:39:30.665Z,101433.22
2022-10-11T05:41:56.808Z,101432.44
2022-10-11T05:44:22.966Z,101447.31
2022-10-11T05:46:49.066Z,101449.19
2022-10-11T05:49:15.181Z,101454.41
2022-10-11T05:51:41.377Z,101450.13
2022-10-11T05:54:07.524Z,101448.38
2022-10-11T05:56:33.670Z,101457.34
2022-10-11T05:59:02.340Z,101459.38
2022-10-11T06:01:29.875Z,101465.34
2022-10-11T06:03:56.091Z,101467.22
2022-10-11T06:06:22.255Z,101475.06
2022-10-11T06:08:48.375Z,101482.09
2022-10-11T06:11:14.487Z,101479.66
2022-10-11T06:13:40.633Z,101486.69
2022-10-11T06:16:07.312Z,101490.28
2022-10-11T06:18:33.810Z,101485.13
2022-10-11T06:20:59.951Z,101490.38
2022-10-11T06:23:26.066Z,101494.63
2022-10-11T06:25:52.204Z,101496.47
2022-10-11T06:28:18.387Z,101503.41
2022-10-11T06:30:44.561Z,101503.53
2022-10-11T06:33:10.731Z,101506.16
2022-10-11T06:35:36.837Z,101509.59
2022-10-11T06:38:02.970Z,101507.94
2022-10-11T06:40:29.121Z,101517.69
2022-10-11T06:42:55.248Z,101515.84
2022-10-11T06:45:21.418Z,101521.25
2022-10-11T06:47:47.571Z,101531.69
2022-10-11T06:50:13.743Z,101531.00
2022-10-11T06:52:39.852Z,101536.97
2022-10-11T06:55:05.995Z,101532.00
2022-10-11T06:57:32.158Z,101538.19
2022-10-11T06:59:58.296Z,101539.03
2022-10-11T07:02:24.458Z,101542.47
2022-10-11T07:04:50.613Z,101551.03
2022-10-11T07:07:16.756Z,101547.41
2022-10-11T07:09:42.895Z,101545.41
2022-10-11T07:12:09.048Z,101550.44
2022-10-11T07:14:35.167Z,101553.78
2022-10-11T07:17:01.594Z,101560.59
2022-10-11T07:19:27.740Z,101552.78
2022-10-11T07:21:53.889Z,101565.94
2022-10-11T07:24:20.029Z,101557.84
2022-10-11T07:26:46.195Z,101565.63
2022-10-11T07:29:12.325Z,101567.06
2022-10-11T07:31:38.797Z,101574.03
2022-10-11T07:34:04.924Z,101570.38
2022-10-11T07:36:31.164Z,101582.50
2022-10-11T07:38:57.333Z,101579.16
2022-10-11T07:41:23.489Z,101577.41
2022-10-11T07:43:49.723Z,101584.44
2022-10-11T07:46:19.019Z,101577.28
2022-10-11T07:48:45.218Z,101585.88
2022-10-11T07:51:11.339Z,101579.44
2022-10-11T07:53:37.476Z,101589.13
2022-10-11T07:56:04.047Z,101583.91
2022-10-11T07:58:30.398Z,101577.00
2022-10-11T08:00:56.588Z,101587.53
2022-10-11T08:03:22.810Z,101583.69
2022-10-11T08:05:48.955Z,101591.13
2022-10-11T08:08:15.115Z,101593.38
2022-10-11T08:10:41.274Z,101590.56
2022-10-11T08:13:07.430Z,101591.38
2022-10-11T08:15:33.561Z,101593.72
2022-10-11T08:17:59.713Z,101596.94
2022-10-11T08:20:25.862Z,101601.88
2022-10-11T08:22:51.988Z,101607.94
2022-10-11T08:25:18.163Z,101608.41
2022-10-11T08:27:44.315Z,101607.44
2022-10-11T08:30:10.478Z,101609.03
2022-10-11T08:32:36.622Z,101612.34
2022-10-11T08:35:02.768Z,101608.78
2022-10-11T08:37:28.925Z,101609.03
2022-10-11T08:39:55.106Z,101608.75
2022-10-11T08:42:21.311Z,101620.25
2022-10-11T08:47:33.739Z,101619.34
2022-10-11T08:49:59.941Z,101611.16
2022-10-11T08:52:26.107Z,101614.78
2022-10-11T08:54:52.256Z,101613.69
2022-10-11T08:57:18.413Z,101614.56
2022-10-11T08:59:44.618Z,101608.94
2022-10-11T09:02:11.692Z,101609.34
2022-10-11T09:04:37.882Z,101611.28
2022-10-11T09:07:05.163Z,101606.66
2022-10-11T09:09:33.332Z,101604.25
2022-10-11T09:11:59.512Z,101603.78
2022-10-11T09:14:25.658Z,101607.94
2022-10-11T09:16:51.786Z,101606.41
2022-10-11T09:19:17.961Z,101608.81
2022-10-11T09:21:44.093Z,101602.44
2022-10-11T09:24:10.230Z,101601.75
2022-10-11T09:26:36.363Z,101606.44
2022-10-11T09:29:02.513Z,101610.28
2022-10-11T09:31:28.733Z,101609.22
2022-10-11T09:33:56.052Z,101610.75
2022-10-11T09:36:22.206Z,101608.38
2022-10-11T09:38:48.406Z,101608.63
2022-10-11T09:41:14.552Z,101595.16
2022-10-11T09:43:41.186Z,101589.09
2022-10-11T09:46:07.880Z,101589.19
2022-10-11T09:48:34.429Z,101586.72
2022-10-11T09:51:00.679Z,101593.72
2022-10-11T09:53:26.847Z,101592.25
2022-10-11T09:55:53.080Z,101592.38
2022-10-11T09:58:19.221Z,101592.09
2022-10-11T10:00:45.393Z,101588.72
2022-10-11T10:03:11.522Z,101593.75
2022-10-11T10:05:37.690Z,101590.09
2022-10-11T10:08:04.977Z,101585.53
2022-10-11T10:10:31.781Z,101587.28
2022-10-11T10:12:57.901Z,101586.78
2022-10-11T10:15:24.023Z,101576.06
2022-10-11T10:17:50.188Z,101580.97
2022-10-11T10:20:16.350Z,101582.34
2022-10-11T10:22:42.545Z,101579.41
2022-10-11T10:25:08.660Z,101574.66
2022-10-11T10:27:34.811Z,101577.00
2022-10-11T10:30:00.954Z,101564.53
2022-10-11T10:32:29.511Z,101572.63
2022-10-11T10:34:55.690Z,101563.22
2022-10-11T10:37:23.615Z,101566.69
2022-10-11T10:39:49.774Z,101573.41
2022-10-11T10:42:15.892Z,101560.94
2022-10-11T10:44:42.070Z,101564.78
2022-10-11T10:47:08.194Z,101563.25
2022-10-11T10:49:53.024Z,101570.25
2022-10-11T10:52:20.133Z,101559.84
2022-10-11T10:54:46.295Z,101558.41
2022-10-11T10:57:12.768Z,101563.66
2022-10-11T10:59:38.909Z,101560.72
2022-10-11T11:02:34.991Z,101558.06
2022-10-11T11:04:51.299Z,101565.13
2022-10-11T11:07:17.497Z,101550.91
2022-10-11T11:09:43.634Z,101554.72
2022-10-11T11:12:09.752Z,101553.53
2022-10-11T11:14:35.924Z,101546.81
2022-10-11T11:17:02.046Z,101550.41
2022-10-11T11:19:28.228Z,101550.31
2022-10-11T11:21:54.370Z,101545.38
2022-10-11T11:24:20.525Z,101553.69
2022-10-11T11:26:46.642Z,101547.44
2022-10-11T11:29:12.830Z,101548.63
2022-10-11T11:31:38.971Z,101542.13
2022-10-11T11:34:05.226Z,101544.97
2022-10-11T11:36:31.346Z,101532.75
2022-10-11T11:38:57.517Z,101539.34
2022-10-11T11:41:23.684Z,101541.81
2022-10-11T11:43:53.844Z,101535.81
2022-10-11T11:46:20.035Z,101532.34
2022-10-11T11:48:46.167Z,101520.59
2022-10-11T11:51:12.320Z,101519.03
2022-10-11T11:53:38.544Z,101512.22
2022-10-11T11:56:04.672Z,101510.81
2022-10-11T11:58:30.807Z,101514.25
2022-10-11T12:00:56.960Z,101514.44
2022-10-11T12:03:24.106Z,101504.28
2022-10-11T12:05:50.264Z,101504.50
2022-10-11T12:08:16.391Z,101503.69
2022-10-11T12:10:42.566Z,101495.66
2022-10-11T12:13:08.747Z,101495.09
2022-10-11T12:15:35.102Z,101501.59
2022-10-11T12:18:01.251Z,101495.00
2022-10-11T12:20:27.377Z,101491.88
2022-10-11T12:22:53.551Z,101484.31
2022-10-11T12:25:19.705Z,101493.59
2022-10-11T12:27:47.010Z,101487.44
2022-10-11T12:30:13.186Z,101476.88
2022-10-11T12:32:44.780Z,101478.50
2022-10-11T12:35:14.188Z,101468.69
2022-10-11T12:37:40.347Z,101476.31
2022-10-11T12:40:06.504Z,101465.47
2022-10-11T12:42:32.658Z,101464.53
2022-10-11T12:44:58.863Z,101459.63
2022-10-11T12:47:25.066Z,101462.34
2022-10-11T12:49:54.373Z,101456.88
2022-10-11T12:52:20.564Z,101453.50
2022-10-11T12:54:46.835Z,101451.16
2022-10-11T12:57:12.971Z,101455.00
2022-10-11T12:59:39.136Z,101450.03
2022-10-11T13:02:05.327Z,101456.53
2022-10-11T13:04:31.460Z,101454.34
2022-10-11T13:06:57.878Z,101458.41
2022-10-11T13:09:24.065Z,101456.31
2022-10-11T13:11:54.555Z,101454.50
2022-10-11T13:14:20.866Z,101454.34
2022-10-11T13:16:47.109Z,101456.63
2022-10-11T13:19:20.544Z,101451.91
2022-10-11T13:21:46.805Z,101457.28
2022-10-11T13:24:13.033Z,101459.06
2022-10-11T13:26:39.243Z,101447.75
2022-10-11T13:29:05.388Z,101450.66
2022-10-11T13:31:31.695Z,101454.06
2022-10-11T13:34:03.166Z,101446.03
2022-10-11T13:36:29.368Z,101444.91
2022-10-11T13:38:55.514Z,101452.09
2022-10-11T13:41:21.690Z,101445.28
2022-10-11T13:43:47.903Z,101441.78
2022-10-11T13:46:14.105Z,101442.00
2022-10-11T13:48:40.269Z,101440.41
2022-10-11T13:51:06.480Z,101437.19
2022-10-11T13:53:32.621Z,101438.88
2022-10-11T13:55:58.803Z,101433.88
2022-10-11T13:58:24.978Z,101438.50
2022-10-11T14:00:51.237Z,101431.44
2022-10-11T14:03:17.531Z,101428.13
2022-10-11T14:05:43.765Z,101426.25
2022-10-11T14:08:11.481Z,101428.78
2022-10-11T14:10:37.802Z,101424.00
2022-10-11T14:13:05.173Z,101430.22
2022-10-11T14:15:31.424Z,101432.28
2022-10-11T14:17:57.733Z,101436.63
2022-10-11T14:20:28.367Z,101432.56
2022-10-11T14:22:57.089Z,101435.69
2022-10-11T14:25:27.478Z,101426.72
2022-10-11T14:27:56.773Z,101422.28
2022-10-11T14:30:26.188Z,101424.16
2022-10-11T14:32:53.360Z,101423.69
2022-10-11T14:35:19.530Z,101427.84
2022-10-11T14:37:45.685Z,101419.66
2022-10-11T14:40:11.825Z,101419.56
2022-10-11T14:42:38.003Z,101422.31
2022-10-11T14:45:04.293Z,101428.13
2022-10-11T14:50:20.983Z,101425.88
2022-10-11T14:52:47.169Z,101422.81
2022-10-11T14:55:13.321Z,101424.66
2022-10-11T14:57:39.496Z,101431.84
2022-10-11T15:00:05.628Z,101426.56
2022-10-11T15:02:34.833Z,101434.00
2022-10-11T15:05:00.976Z,101432.44
2022-10-11T15:07:27.117Z,101433.00
2022-10-11T15:09:53.537Z,101428.59
2022-10-11T15:12:19.810Z,101423.97
2022-10-11T15:14:45.933Z,101422.28
2022-10-11T15:17:12.083Z,101431.13
2022-10-11T15:19:38.521Z,101428.59
2022-10-11T15:22:04.659Z,101422.28
2022-10-11T15:24:31.018Z,101423.16
2022-10-11T15:26:57.149Z,101424.25
2022-10-11T15:29:23.523Z,101423.00
2022-10-11T15:31:49.714Z,101420.63
2022-10-11T15:34:15.879Z,101423.78
2022-10-11T15:36:42.014Z,101417.84
2022-10-11T15:39:08.202Z,101420.47
2022-10-11T15:41:34.319Z,101427.41
2022-10-11T15:44:00.509Z,101425.09
2022-10-11T15:46:26.651Z,101420.78
2022-10-11T15:48:54.882Z,101422.72
2022-10-11T15:51:27.336Z,101432.66
2022-10-11T15:53:56.312Z,101429.34
2022-10-11T15:56:24.246Z,101427.66
2022-10-11T15:58:50.424Z,101420.06
2022-10-11T16:01:16.597Z,101424.66
2022-10-11T16:03:42.728Z,101427.38
2022-10-11T16:06:09.288Z,101427.53
2022-10-11T16:08:35.627Z,101427.38
2022-10-11T16:11:01.767Z,101426.03
2022-10-11T16:13:27.901Z,101421.59
2022-10-11T16:15:54.066Z,101425.41
2022-10-11T16:18:20.242Z,101422.91
2022-10-11T16:20:46.379Z,101424.91
2022-10-11T16:23:12.573Z,101423.78
2022-10-11T16:25:38.740Z,101432.91
2022-10-11T16:28:04.902Z,101427.06
2022-10-11T16:30:38.591Z,101432.41
2022-10-11T16:33:09.207Z,101434.94
2022-10-11T16:35:35.386Z,101429.06
2022-10-11T16:38:01.875Z,101432.72
2022-10-11T16:40:28.108Z,101439.06
2022-10-11T16:42:54.529Z,101435.63
2022-10-11T16:45:20.710Z,101429.50
2022-10-11T16:47:46.873Z,101434.06
2022-10-11T16:50:13.024Z,101432.59
2022-10-11T16:52:39.232Z,101437.84
2022-10-11T16:57:45.518Z,101436.69
2022-10-11T17:00:11.650Z,101445.44
2022-10-11T17:02:37.782Z,101439.56
2022-10-11T17:05:04.025Z,101442.38
2022-10-11T17:07:30.240Z,101440.88
2022-10-11T17:09:56.559Z,101437.41
2022-10-11T17:12:22.719Z,101439.44
2022-10-11T17:14:48.868Z,101446.81
2022-10-11T17:17:15.091Z,101440.72
2022-10-11T17:19:44.833Z,101438.13
2022-10-11T17:22:11.557Z,101444.50
2022-10-11T17:24:38.907Z,101442.09
2022-10-11T17:27:05.076Z,101439.75
2022-10-11T17:29:31.244Z,101438.16
2022-10-11T17:31:57.383Z,101437.38
2022-10-11T17:34:23.543Z,101440.16
2022-10-11T17:36:49.663Z,101434.88
2022-10-11T17:39:15.831Z,101446.38
2022-10-11T17:41:43.149Z,101436.81
2022-10-11T17:44:09.327Z,101442.16
2022-10-11T17:46:35.485Z,101440.59
2022-10-11T17:49:01.614Z,101438.09
2022-10-11T17:51:27.776Z,101444.31
2022-10-11T17:53:53.898Z,101442.72
2022-10-11T17:56:23.956Z,101440.03
2022-10-11T17:58:53.009Z,101440.09
2022-10-11T18:01:19.230Z,101443.75
2022-10-11T18:03:45.553Z,101442.88
2022-10-11T18:06:11.700Z,101442.09
2022-10-11T18:08:40.423Z,101442.09
2022-10-11T18:11:07.174Z,101447.44
2022-10-11T18:13:35.687Z,101449.28
2022-10-11T18:16:01.878Z,101445.16
2022-10-11T18:18:28.052Z,101449.50
2022-10-11T18:20:55.374Z,101451.66
2022-10-11T18:23:21.638Z,101448.38
2022-10-11T18:25:47.791Z,101450.22
2022-10-11T18:28:14.008Z,101452.84
2022-10-11T18:30:40.232Z,101453.00
2022-10-11T18:33:06.439Z,101447.75
2022-10-11T18:35:32.615Z,101453.75
2022-10-11T18:38:00.971Z,101450.38
2022-10-11T18:40:27.359Z,101452.44
2022-10-11T18:42:53.562Z,101454.13
2022-10-11T18:45:19.932Z,101456.03
2022-10-11T18:47:46.096Z,101452.78
2022-10-11T18:50:12.289Z,101464.47
2022-10-11T18:52:44.551Z,101464.63
2022-10-11T18:55:10.990Z,101460.44
2022-10-11T18:57:37.139Z,101465.69
2022-10-11T19:00:11.803Z,101454.53
2022-10-11T19:02:50.102Z,101456.91
2022-10-11T19:05:16.305Z,101457.97
2022-10-11T19:07:42.430Z,101456.38
2022-10-11T19:10:08.632Z,101458.19
2022-10-11T19:12:34.798Z,101456.84
2022-10-11T19:15:00.955Z,101446.50
2022-10-11T19:17:27.211Z,101448.59
2022-10-11T19:19:53.431Z,101457.81
2022-10-11T19:22:19.756Z,101457.09
2022-10-11T19:24:46.016Z,101452.88
2022-10-11T19:27:13.362Z,101453.22
2022-10-11T19:29:39.553Z,101453.44
2022-10-11T19:32:07.941Z,101456.16
2022-10-11T19:34:34.122Z,101457.16
2022-10-11T19:37:00.356Z,101461.69
2022-10-11T19:39:26.536Z,101460.00
2022-10-11T19:41:52.721Z,101454.84
2022-10-11T19:44:18.908Z,101448.06
2022-10-11T19:46:51.960Z,101450.91
2022-10-11T19:49:20.445Z,101456.16
2022-10-11T19:51:46.613Z,101455.41
2022-10-11T19:54:12.784Z,101462.53
2022-10-11T19:56:38.931Z,101453.94
2022-10-11T19:59:05.074Z,101458.59
2022-10-11T20:01:31.348Z,101458.72
2022-10-11T20:03:57.984Z,101460.56
2022-10-11T20:06:24.171Z,101463.09
2022-10-11T20:09:10.329Z,101465.72
2022-10-11T20:11:36.559Z,101468.28
2022-10-11T20:14:02.734Z,101468.22
2022-10-11T20:16:28.874Z,101473.31
2022-10-11T20:18:55.053Z,101477.59
2022-10-11T20:21:21.186Z,101470.47
2022-10-11T20:23:47.376Z,101472.34
2022-10-11T20:26:13.525Z,101481.00
2022-10-11T20:28:39.715Z,101474.84
2022-10-11T20:31:05.963Z,101469.47
2022-10-11T20:33:32.197Z,101475.50
2022-10-11T20:35:58.350Z,101478.91
2022-10-11T20:38:26.831Z,101478.13
2022-10-11T20:40:53.229Z,101472.09
2022-10-11T20:43:20.570Z,101475.63
2022-10-11T20:45:49.648Z,101466.25
2022-10-11T20:48:15.916Z,101477.66
2022-10-11T20:50:42.119Z,101471.56
2022-10-11T20:53:09.408Z,101473.38
2022-10-11T20:55:37.944Z,101469.44
2022-10-11T20:58:04.141Z,101476.63
2022-10-11T21:00:30.265Z,101479.50
2022-10-11T21:02:56.454Z,101479.00
2022-10-11T21:05:22.599Z,101475.78
2022-10-11T21:07:48.799Z,101479.47
2022-10-11T21:10:14.911Z,101477.13
2022-10-11T21:12:41.046Z,101484.41
2022-10-11T21:15:07.207Z,101479.53
2022-10-11T21:17:33.361Z,101477.13
2022-10-11T21:19:59.560Z,101477.13
2022-10-11T21:22:25.773Z,101480.81
2022-10-11T21:24:51.996Z,101477.38
2022-10-11T21:27:18.527Z,101472.09
2022-10-11T21:29:44.969Z,101476.38
2022-10-11T21:32:14.346Z,101477.06
2022-10-11T21:34:40.842Z,101466.56
2022-10-11T21:37:07.006Z,101482.16
2022-10-11T21:39:33.231Z,101473.25
2022-10-11T21:41:59.393Z,101472.41
2022-10-11T21:44:25.524Z,101469.00
2022-10-11T21:49:42.069Z,101471.44
2022-10-11T21:52:08.266Z,101468.75
2022-10-11T21:54:34.559Z,101456.66
2022-10-11T21:57:00.744Z,101456.59
2022-10-11T21:59:26.930Z,101460.09
2022-10-11T22:01:55.038Z,101458.34
2022-10-11T22:04:24.195Z,101460.06
2022-10-11T22:06:50.516Z,101458.34
2022-10-11T22:09:16.740Z,101461.88
2022-10-11T22:11:42.958Z,101456.59
2022-10-11T22:14:09.186Z,101453.13
2022-10-11T22:16:35.411Z,101453.44
2022-10-11T22:19:01.756Z,101447.19
2022-10-11T22:21:27.883Z,101449.03
2022-10-11T22:23:54.020Z,101444.59
2022-10-11T22:26:20.162Z,101445.63
2022-10-11T22:28:46.435Z,101443.13
2022-10-11T22:31:12.659Z,101435.38
2022-10-11T22:33:38.828Z,101439.72
2022-10-11T22:36:05.016Z,101440.50
2022-10-11T22:38:31.147Z,101437.13
2022-10-11T22:40:57.259Z,101431.88
2022-10-11T22:43:23.398Z,101428.34
2022-10-11T22:45:49.532Z,101425.78
2022-10-11T22:48:15.658Z,101436.19
2022-10-11T22:50:41.812Z,101433.69
2022-10-11T22:53:07.983Z,101437.13
2022-10-11T22:55:34.170Z,101434.56
2022-10-11T22:58:00.309Z,101424.97
2022-10-11T23:00:26.411Z,101427.72
2022-10-11T23:02:52.534Z,101426.13
2022-10-11T23:05:18.672Z,101428.94
2022-10-11T23:07:44.820Z,101430.88
2022-10-11T23:10:10.971Z,101429.25
2022-10-11T23:12:37.108Z,101431.00
2022-10-11T23:15:03.220Z,101429.25
2022-10-11T23:17:29.356Z,101420.59
2022-10-11T23:19:55.497Z,101420.66
2022-10-11T23:22:21.628Z,101425.09
2022-10-11T23:24:47.766Z,101419.91
2022-10-11T23:27:13.891Z,101422.03
2022-10-11T23:29:40.023Z,101418.56
2022-10-11T23:32:06.163Z,101414.28
2022-10-11T23:34:32.269Z,101413.53
2022-10-11T23:36:58.412Z,101413.72
2022-10-11T23:39:24.538Z,101410.47
2022-10-11T23:41:50.667Z,101411.56
2022-10-11T23:44:16.820Z,101410.88
2022-10-11T23:46:42.951Z,101421.66
2022-10-11T23:49:09.073Z,101427.34
2022-10-11T23:51:35.195Z,101422.34
2022-10-11T23:54:01.300Z,101421.59
2022-10-11T23:56:27.435Z,101419.38
2022-10-11T23:58:53.606Z,101418.72
